sensor_id;sensor_type;location;lat;lon;timestamp;pressure;altitude;pressure_sealevel;temperature;humidity
44934;BME280;30667;43.614;1.442;2023-04-20T00:00:58;99462.97;;;14.26;99.48
44934;BME280;30667;43.614;1.442;2023-04-20T00:03:23;99457.03;;;14.24;99.29
44934;BME280;30667;43.614;1.442;2023-04-20T00:05:50;99449.81;;;14.19;100.00
44934;BME280;30667;43.614;1.442;2023-04-20T00:08:16;99449.34;;;14.17;99.82
44934;BME280;30667;43.614;1.442;2023-04-20T00:10:44;99454.31;;;14.24;100.00
44934;BME280;30667;43.614;1.442;2023-04-20T00:13:10;99450.94;;;14.18;100.00
44934;BME280;30667;43.614;1.442;2023-04-20T00:15:36;99444.84;;;14.12;100.00
44934;BME280;30667;43.614;1.442;2023-04-20T00:18:01;99440.19;;;14.04;100.00
44934;BME280;30667;43.614;1.442;2023-04-20T00:20:27;99446.09;;;14.06;100.00
44934;BME280;30667;43.614;1.442;2023-04-20T00:22:53;99441.13;;;13.99;100.00
44934;BME280;30667;43.614;1.442;2023-04-20T00:25:19;99436.00;;;13.98;100.00
44934;BME280;30667;43.614;1.442;2023-04-20T00:27:45;99434.38;;;13.97;100.00
44934;BME280;30667;43.614;1.442;2023-04-20T00:30:11;99431.97;;;13.95;100.00
44934;BME280;30667;43.614;1.442;2023-04-20T00:32:36;99425.25;;;13.93;100.00
44934;BME280;30667;43.614;1.442;2023-04-20T00:35:02;99428.28;;;13.91;100.00
44934;BME280;30667;43.614;1.442;2023-04-20T00:37:27;99421.72;;;13.92;100.00
44934;BME280;30667;43.614;1.442;2023-04-20T00:39:54;99416.88;;;13.80;100.00
44934;BME280;30667;43.614;1.442;2023-04-20T00:42:19;99416.06;;;13.80;100.00
44934;BME280;30667;43.614;1.442;2023-04-20T00:44:45;99419.09;;;13.78;100.00
44934;BME280;30667;43.614;1.442;2023-04-20T00:47:10;99417.16;;;13.70;100.00
44934;BME280;30667;43.614;1.442;2023-04-20T00:49:36;99409.63;;;13.67;100.00
44934;BME280;30667;43.614;1.442;2023-04-20T00:52:01;99411.53;;;13.67;100.00
44934;BME280;30667;43.614;1.442;2023-04-20T00:54:27;99408.19;;;13.61;100.00
44934;BME280;30667;43.614;1.442;2023-04-20T00:56:54;99400.03;;;13.61;100.00
44934;BME280;30667;43.614;1.442;2023-04-20T00:59:22;99401.13;;;13.60;100.00
44934;BME280;30667;43.614;1.442;2023-04-20T01:01:48;99399.81;;;13.57;100.00
44934;BME280;30667;43.614;1.442;2023-04-20T01:04:13;99386.06;;;13.54;100.00
44934;BME280;30667;43.614;1.442;2023-04-20T01:06:39;99390.19;;;13.51;100.00
44934;BME280;30667;43.614;1.442;2023-04-20T01:09:05;99386.22;;;13.49;100.00
44934;BME280;30667;43.614;1.442;2023-04-20T01:11:31;99384.44;;;13.53;100.00
44934;BME280;30667;43.614;1.442;2023-04-20T01:13:56;99387.16;;;13.53;100.00
44934;BME280;30667;43.614;1.442;2023-04-20T01:16:21;99369.28;;;13.52;100.00
44934;BME280;30667;43.614;1.442;2023-04-20T01:18:48;99375.50;;;13.52;100.00
44934;BME280;30667;43.614;1.442;2023-04-20T01:21:16;99374.03;;;13.46;100.00
44934;BME280;30667;43.614;1.442;2023-04-20T01:23:42;99375.47;;;13.43;100.00
44934;BME280;30667;43.614;1.442;2023-04-20T01:26:09;99373.69;;;13.39;100.00
44934;BME280;30667;43.614;1.442;2023-04-20T01:28:35;99374.31;;;13.36;100.00
44934;BME280;30667;43.614;1.442;2023-04-20T01:31:05;99373.19;;;13.37;100.00
44934;BME280;30667;43.614;1.442;2023-04-20T01:33:31;99371.09;;;13.34;100.00
44934;BME280;30667;43.614;1.442;2023-04-20T01:35:57;99368.56;;;13.37;100.00
44934;BME280;30667;43.614;1.442;2023-04-20T01:38:23;99364.19;;;13.27;100.00
44934;BME280;30667;43.614;1.442;2023-04-20T01:40:49;99364.19;;;13.27;100.00
44934;BME280;30667;43.614;1.442;2023-04-20T01:43:15;99363.22;;;13.32;100.00
44934;BME280;30667;43.614;1.442;2023-04-20T01:45:41;99362.50;;;13.18;100.00
44934;BME280;30667;43.614;1.442;2023-04-20T01:48:06;99350.19;;;13.12;100.00
44934;BME280;30667;43.614;1.442;2023-04-20T01:50:32;99354.44;;;13.04;100.00
44934;BME280;30667;43.614;1.442;2023-04-20T01:52:57;99352.03;;;13.02;100.00
44934;BME280;30667;43.614;1.442;2023-04-20T01:55:23;99355.09;;;13.09;100.00
44934;BME280;30667;43.614;1.442;2023-04-20T01:57:48;99354.06;;;12.97;100.00
44934;BME280;30667;43.614;1.442;2023-04-20T02:00:14;99348.03;;;13.00;100.00
44934;BME280;30667;43.614;1.442;2023-04-20T02:02:40;99348.66;;;12.97;100.00
44934;BME280;30667;43.614;1.442;2023-04-20T02:05:06;99349.56;;;12.92;100.00
44934;BME280;30667;43.614;1.442;2023-04-20T02:07:31;99349.09;;;12.90;100.00
44934;BME280;30667;43.614;1.442;2023-04-20T02:09:57;99342.66;;;12.86;100.00
44934;BME280;30667;43.614;1.442;2023-04-20T02:12:22;99344.44;;;12.90;100.00
44934;BME280;30667;43.614;1.442;2023-04-20T02:14:47;99342.34;;;12.87;100.00
44934;BME280;30667;43.614;1.442;2023-04-20T02:17:13;99338.34;;;12.85;100.00
44934;BME280;30667;43.614;1.442;2023-04-20T02:19:38;99338.06;;;12.86;100.00
44934;BME280;30667;43.614;1.442;2023-04-20T02:22:04;99329.72;;;12.83;100.00
44934;BME280;30667;43.614;1.442;2023-04-20T02:24:30;99336.09;;;12.78;100.00
44934;BME280;30667;43.614;1.442;2023-04-20T02:26:56;99334.41;;;12.68;100.00
44934;BME280;30667;43.614;1.442;2023-04-20T02:29:23;99340.47;;;12.65;100.00
44934;BME280;30667;43.614;1.442;2023-04-20T02:31:48;99333.41;;;12.64;100.00
44934;BME280;30667;43.614;1.442;2023-04-20T02:34:13;99333.28;;;12.69;100.00
44934;BME280;30667;43.614;1.442;2023-04-20T02:36:39;99335.03;;;12.65;100.00
44934;BME280;30667;43.614;1.442;2023-04-20T02:39:05;99335.22;;;12.46;100.00
44934;BME280;30667;43.614;1.442;2023-04-20T02:41:31;99335.94;;;12.38;100.00
44934;BME280;30667;43.614;1.442;2023-04-20T02:43:56;99335.13;;;12.38;100.00
44934;BME280;30667;43.614;1.442;2023-04-20T02:46:22;99338.44;;;12.34;100.00
44934;BME280;30667;43.614;1.442;2023-04-20T02:48:47;99323.28;;;12.33;100.00
44934;BME280;30667;43.614;1.442;2023-04-20T02:51:13;99328.81;;;12.28;100.00
44934;BME280;30667;43.614;1.442;2023-04-20T02:53:38;99324.25;;;12.38;100.00
44934;BME280;30667;43.614;1.442;2023-04-20T02:56:03;99326.19;;;12.37;100.00
44934;BME280;30667;43.614;1.442;2023-04-20T02:58:29;99322.16;;;12.34;100.00
44934;BME280;30667;43.614;1.442;2023-04-20T03:00:59;99317.47;;;12.26;100.00
44934;BME280;30667;43.614;1.442;2023-04-20T03:03:25;99315.50;;;12.18;100.00
44934;BME280;30667;43.614;1.442;2023-04-20T03:05:51;99312.91;;;12.13;100.00
44934;BME280;30667;43.614;1.442;2023-04-20T03:08:16;99314.59;;;12.09;100.00
44934;BME280;30667;43.614;1.442;2023-04-20T03:10:42;99306.59;;;12.04;100.00
44934;BME280;30667;43.614;1.442;2023-04-20T03:13:07;99314.00;;;11.98;100.00
44934;BME280;30667;43.614;1.442;2023-04-20T03:15:33;99306.78;;;11.93;100.00
44934;BME280;30667;43.614;1.442;2023-04-20T03:17:58;99306.78;;;11.93;100.00
44934;BME280;30667;43.614;1.442;2023-04-20T03:20:24;99303.38;;;12.02;100.00
44934;BME280;30667;43.614;1.442;2023-04-20T03:22:49;99302.97;;;11.94;100.00
44934;BME280;30667;43.614;1.442;2023-04-20T03:25:15;99301.06;;;11.95;100.00
44934;BME280;30667;43.614;1.442;2023-04-20T03:27:41;99296.97;;;11.97;100.00
44934;BME280;30667;43.614;1.442;2023-04-20T03:30:06;99301.88;;;11.95;100.00
44934;BME280;30667;43.614;1.442;2023-04-20T03:32:32;99312.81;;;11.90;100.00
44934;BME280;30667;43.614;1.442;2023-04-20T03:34:57;99309.81;;;11.78;100.00
44934;BME280;30667;43.614;1.442;2023-04-20T03:37:23;99305.06;;;11.84;100.00
44934;BME280;30667;43.614;1.442;2023-04-20T03:39:48;99312.81;;;11.90;100.00
44934;BME280;30667;43.614;1.442;2023-04-20T03:42:14;99311.50;;;11.88;100.00
44934;BME280;30667;43.614;1.442;2023-04-20T03:44:39;99310.31;;;11.80;100.00
44934;BME280;30667;43.614;1.442;2023-04-20T03:47:04;99315.44;;;11.68;100.00
44934;BME280;30667;43.614;1.442;2023-04-20T03:49:30;99312.22;;;11.66;100.00
44934;BME280;30667;43.614;1.442;2023-04-20T03:51:55;99311.44;;;11.65;100.00
44934;BME280;30667;43.614;1.442;2023-04-20T03:54:21;99312.13;;;11.71;100.00
44934;BME280;30667;43.614;1.442;2023-04-20T03:56:46;99314.22;;;11.74;100.00
44934;BME280;30667;43.614;1.442;2023-04-20T03:59:13;99311.50;;;11.74;100.00
44934;BME280;30667;43.614;1.442;2023-04-20T04:01:39;99310.00;;;11.81;100.00
44934;BME280;30667;43.614;1.442;2023-04-20T04:04:04;99307.19;;;11.87;100.00
44934;BME280;30667;43.614;1.442;2023-04-20T04:06:30;99314.31;;;11.96;100.00
44934;BME280;30667;43.614;1.442;2023-04-20T04:08:56;99307.69;;;11.89;100.00
44934;BME280;30667;43.614;1.442;2023-04-20T04:11:21;99310.91;;;11.91;100.00
44934;BME280;30667;43.614;1.442;2023-04-20T04:13:48;99311.69;;;11.91;100.00
44934;BME280;30667;43.614;1.442;2023-04-20T04:16:13;99314.50;;;11.86;100.00
44934;BME280;30667;43.614;1.442;2023-04-20T04:18:42;99310.00;;;11.81;100.00
44934;BME280;30667;43.614;1.442;2023-04-20T04:21:08;99310.22;;;11.71;100.00
44934;BME280;30667;43.614;1.442;2023-04-20T04:23:34;99310.41;;;11.61;100.00
44934;BME280;30667;43.614;1.442;2023-04-20T04:26:01;99309.69;;;11.69;100.00
44934;BME280;30667;43.614;1.442;2023-04-20T04:28:27;99308.81;;;11.74;100.00
44934;BME280;30667;43.614;1.442;2023-04-20T04:30:52;99318.34;;;11.57;100.00
44934;BME280;30667;43.614;1.442;2023-04-20T04:33:18;99313.25;;;11.70;100.00
44934;BME280;30667;43.614;1.442;2023-04-20T04:35:44;99310.91;;;11.63;100.00
44934;BME280;30667;43.614;1.442;2023-04-20T04:38:11;99315.16;;;11.55;100.00
44934;BME280;30667;43.614;1.442;2023-04-20T04:40:38;99311.00;;;11.72;100.00
44934;BME280;30667;43.614;1.442;2023-04-20T04:43:04;99317.25;;;11.58;100.00
44934;BME280;30667;43.614;1.442;2023-04-20T04:45:29;99315.13;;;11.41;100.00
44934;BME280;30667;43.614;1.442;2023-04-20T04:47:54;99321.44;;;11.37;100.00
44934;BME280;30667;43.614;1.442;2023-04-20T04:50:21;99318.53;;;11.33;100.00
44934;BME280;30667;43.614;1.442;2023-04-20T04:52:46;99313.31;;;11.37;100.00
44934;BME280;30667;43.614;1.442;2023-04-20T04:55:12;99319.00;;;11.21;100.00
44934;BME280;30667;43.614;1.442;2023-04-20T04:57:37;99316.31;;;11.21;100.00
44934;BME280;30667;43.614;1.442;2023-04-20T05:00:04;99321.72;;;11.21;100.00
44934;BME280;30667;43.614;1.442;2023-04-20T05:02:36;99307.78;;;11.14;100.00
44934;BME280;30667;43.614;1.442;2023-04-20T05:05:02;99315.81;;;11.19;100.00
44934;BME280;30667;43.614;1.442;2023-04-20T05:07:27;99321.94;;;11.25;100.00
44934;BME280;30667;43.614;1.442;2023-04-20T05:09:53;99323.03;;;11.24;100.00
44934;BME280;30667;43.614;1.442;2023-04-20T05:12:19;99319.63;;;11.32;100.00
44934;BME280;30667;43.614;1.442;2023-04-20T05:14:44;99318.41;;;11.24;100.00
44934;BME280;30667;43.614;1.442;2023-04-20T05:17:10;99324.66;;;11.25;100.00
44934;BME280;30667;43.614;1.442;2023-04-20T05:19:35;99327.28;;;11.30;100.00
44934;BME280;30667;43.614;1.442;2023-04-20T05:22:01;99333.81;;;11.43;100.00
44934;BME280;30667;43.614;1.442;2023-04-20T05:24:26;99334.88;;;11.42;100.00
44934;BME280;30667;43.614;1.442;2023-04-20T05:26:52;99326.06;;;11.36;100.00
44934;BME280;30667;43.614;1.442;2023-04-20T05:29:17;99331.97;;;11.38;100.00
44934;BME280;30667;43.614;1.442;2023-04-20T05:31:43;99327.38;;;11.39;100.00
44934;BME280;30667;43.614;1.442;2023-04-20T05:34:09;99326.47;;;11.43;100.00
44934;BME280;30667;43.614;1.442;2023-04-20T05:36:35;99339.81;;;11.40;100.00
44934;BME280;30667;43.614;1.442;2023-04-20T05:39:01;99331.69;;;11.40;100.00
44934;BME280;30667;43.614;1.442;2023-04-20T05:41:26;99332.97;;;11.29;100.00
44934;BME280;30667;43.614;1.442;2023-04-20T05:43:53;99333.47;;;11.31;100.00
44934;BME280;30667;43.614;1.442;2023-04-20T05:46:18;99335.59;;;11.34;100.00
44934;BME280;30667;43.614;1.442;2023-04-20T05:48:44;99328.69;;;11.41;100.00
44934;BME280;30667;43.614;1.442;2023-04-20T05:51:10;99334.19;;;11.36;100.00
44934;BME280;30667;43.614;1.442;2023-04-20T05:53:35;99329.56;;;11.37;100.00
44934;BME280;30667;43.614;1.442;2023-04-20T05:56:00;99329.78;;;11.68;100.00
44934;BME280;30667;43.614;1.442;2023-04-20T05:58:26;99327.97;;;12.42;100.00
44934;BME280;30667;43.614;1.442;2023-04-20T06:00:52;99328.84;;;11.87;100.00
44934;BME280;30667;43.614;1.442;2023-04-20T06:03:17;99345.16;;;11.59;100.00
44934;BME280;30667;43.614;1.442;2023-04-20T06:05:43;99333.81;;;11.57;100.00
44934;BME280;30667;43.614;1.442;2023-04-20T06:08:08;99338.41;;;11.56;100.00
44934;BME280;30667;43.614;1.442;2023-04-20T06:10:34;99340.03;;;11.57;100.00
44934;BME280;30667;43.614;1.442;2023-04-20T06:12:59;99334.59;;;11.57;100.00
44934;BME280;30667;43.614;1.442;2023-04-20T06:15:25;99327.38;;;11.53;100.00
44934;BME280;30667;43.614;1.442;2023-04-20T06:17:50;99340.53;;;11.59;100.00
44934;BME280;30667;43.614;1.442;2023-04-20T06:20:15;99337.63;;;11.70;100.00
44934;BME280;30667;43.614;1.442;2023-04-20T06:22:44;99333.59;;;11.67;100.00
44934;BME280;30667;43.614;1.442;2023-04-20T06:25:10;99333.91;;;11.66;100.00
44934;BME280;30667;43.614;1.442;2023-04-20T06:27:35;99332.88;;;11.75;100.00
44934;BME280;30667;43.614;1.442;2023-04-20T06:30:01;99331.50;;;11.78;100.00
44934;BME280;30667;43.614;1.442;2023-04-20T06:32:27;99328.97;;;11.81;100.00
44934;BME280;30667;43.614;1.442;2023-04-20T06:34:53;99330.59;;;11.82;100.00
44934;BME280;30667;43.614;1.442;2023-04-20T06:37:18;99328.78;;;11.78;100.00
44934;BME280;30667;43.614;1.442;2023-04-20T06:39:43;99328.66;;;11.83;100.00
44934;BME280;30667;43.614;1.442;2023-04-20T06:42:09;99330.88;;;11.95;100.00
44934;BME280;30667;43.614;1.442;2023-04-20T06:44:34;99325.44;;;12.09;100.00
44934;BME280;30667;43.614;1.442;2023-04-20T06:47:00;99328.88;;;12.14;100.00
44934;BME280;30667;43.614;1.442;2023-04-20T06:49:25;99343.72;;;12.17;100.00
44934;BME280;30667;43.614;1.442;2023-04-20T06:51:51;99334.66;;;12.22;100.00
44934;BME280;30667;43.614;1.442;2023-04-20T06:54:16;99335.88;;;12.15;100.00
44934;BME280;30667;43.614;1.442;2023-04-20T06:56:41;99331.53;;;12.28;100.00
44934;BME280;30667;43.614;1.442;2023-04-20T06:59:07;99323.59;;;12.32;100.00
44934;BME280;30667;43.614;1.442;2023-04-20T07:01:32;99328.72;;;12.33;100.00
44934;BME280;30667;43.614;1.442;2023-04-20T07:03:57;99325.28;;;12.42;100.00
44934;BME280;30667;43.614;1.442;2023-04-20T07:06:23;99323.53;;;12.46;100.00
44934;BME280;30667;43.614;1.442;2023-04-20T07:08:49;99326.94;;;12.51;100.00
44934;BME280;30667;43.614;1.442;2023-04-20T07:11:15;99322.06;;;12.62;100.00
44934;BME280;30667;43.614;1.442;2023-04-20T07:13:40;99324.66;;;12.67;100.00
44934;BME280;30667;43.614;1.442;2023-04-20T07:16:06;99312.06;;;12.71;100.00
44934;BME280;30667;43.614;1.442;2023-04-20T07:18:31;99311.66;;;12.78;100.00
44934;BME280;30667;43.614;1.442;2023-04-20T07:20:56;99309.41;;;12.80;100.00
44934;BME280;30667;43.614;1.442;2023-04-20T07:23:22;99302.31;;;12.93;100.00
44934;BME280;30667;43.614;1.442;2023-04-20T07:25:47;99301.09;;;13.08;100.00
44934;BME280;30667;43.614;1.442;2023-04-20T07:28:13;99293.50;;;13.19;100.00
44934;BME280;30667;43.614;1.442;2023-04-20T07:30:38;99302.19;;;13.30;100.00
44934;BME280;30667;43.614;1.442;2023-04-20T07:33:04;99297.72;;;13.34;100.00
44934;BME280;30667;43.614;1.442;2023-04-20T07:35:29;99297.63;;;13.39;100.00
44934;BME280;30667;43.614;1.442;2023-04-20T07:37:55;99298.09;;;13.50;100.00
44934;BME280;30667;43.614;1.442;2023-04-20T07:40:20;99296.06;;;13.47;100.00
44934;BME280;30667;43.614;1.442;2023-04-20T07:42:46;99295.38;;;13.50;100.00
44934;BME280;30667;43.614;1.442;2023-04-20T07:45:12;99294.97;;;13.56;100.00
44934;BME280;30667;43.614;1.442;2023-04-20T07:47:37;99293.88;;;13.66;100.00
44934;BME280;30667;43.614;1.442;2023-04-20T07:50:04;99298.66;;;13.69;100.00
44934;BME280;30667;43.614;1.442;2023-04-20T07:52:30;99287.16;;;13.72;100.00
44934;BME280;30667;43.614;1.442;2023-04-20T07:54:55;99290.53;;;13.78;100.00
44934;BME280;30667;43.614;1.442;2023-04-20T07:57:23;99291.81;;;13.89;100.00
44934;BME280;30667;43.614;1.442;2023-04-20T07:59:48;99296.47;;;13.97;100.00
44934;BME280;30667;43.614;1.442;2023-04-20T08:02:14;99296.97;;;14.08;100.00
44934;BME280;30667;43.614;1.442;2023-04-20T08:04:40;99295.38;;;14.25;100.00
44934;BME280;30667;43.614;1.442;2023-04-20T08:07:06;99295.84;;;14.35;100.00
44934;BME280;30667;43.614;1.442;2023-04-20T08:09:31;99297.78;;;14.44;100.00
44934;BME280;30667;43.614;1.442;2023-04-20T08:11:56;99291.38;;;14.48;100.00
44934;BME280;30667;43.614;1.442;2023-04-20T08:14:22;99290.72;;;14.51;100.00
44934;BME280;30667;43.614;1.442;2023-04-20T08:16:47;99299.38;;;14.53;100.00
44934;BME280;30667;43.614;1.442;2023-04-20T08:19:13;99288.97;;;14.56;100.00
44934;BME280;30667;43.614;1.442;2023-04-20T08:21:39;99291.88;;;14.68;100.00
44934;BME280;30667;43.614;1.442;2023-04-20T08:24:06;99296.78;;;14.92;100.00
44934;BME280;30667;43.614;1.442;2023-04-20T08:26:32;99295.38;;;14.86;100.00
44934;BME280;30667;43.614;1.442;2023-04-20T08:28:58;99294.91;;;14.84;100.00
44934;BME280;30667;43.614;1.442;2023-04-20T08:31:24;99291.03;;;14.94;100.00
44934;BME280;30667;43.614;1.442;2023-04-20T08:33:49;99285.72;;;14.97;100.00
44934;BME280;30667;43.614;1.442;2023-04-20T08:36:16;99291.78;;;15.03;100.00
44934;BME280;30667;43.614;1.442;2023-04-20T08:38:41;99287.94;;;15.13;100.00
44934;BME280;30667;43.614;1.442;2023-04-20T08:41:07;99284.38;;;15.12;100.00
44934;BME280;30667;43.614;1.442;2023-04-20T08:43:32;99284.22;;;15.17;100.00
44934;BME280;30667;43.614;1.442;2023-04-20T08:45:59;99289.31;;;15.28;100.00
44934;BME280;30667;43.614;1.442;2023-04-20T08:48:36;99284.81;;;15.32;100.00
44934;BME280;30667;43.614;1.442;2023-04-20T08:51:03;99287.47;;;15.40;100.00
44934;BME280;30667;43.614;1.442;2023-04-20T08:53:29;99281.50;;;15.47;100.00
44934;BME280;30667;43.614;1.442;2023-04-20T08:55:55;99284.22;;;15.56;100.00
44934;BME280;30667;43.614;1.442;2023-04-20T08:58:23;99281.94;;;15.58;100.00
44934;BME280;30667;43.614;1.442;2023-04-20T09:00:49;99280.91;;;15.71;100.00
44934;BME280;30667;43.614;1.442;2023-04-20T09:03:15;99276.56;;;15.79;100.00
44934;BME280;30667;43.614;1.442;2023-04-20T09:05:43;99274.66;;;15.79;100.00
44934;BME280;30667;43.614;1.442;2023-04-20T09:08:08;99273.94;;;15.83;100.00
44934;BME280;30667;43.614;1.442;2023-04-20T09:10:41;99269.91;;;15.89;100.00
44934;BME280;30667;43.614;1.442;2023-04-20T09:13:09;99274.38;;;15.93;100.00
44934;BME280;30667;43.614;1.442;2023-04-20T09:15:45;99274.44;;;15.85;100.00
44934;BME280;30667;43.614;1.442;2023-04-20T09:18:12;99271.06;;;15.88;100.00
44934;BME280;30667;43.614;1.442;2023-04-20T09:20:41;99269.44;;;15.87;100.00
44934;BME280;30667;43.614;1.442;2023-04-20T09:23:14;99265.28;;;15.89;100.00
44934;BME280;30667;43.614;1.442;2023-04-20T09:25:39;99270.31;;;16.00;100.00
44934;BME280;30667;43.614;1.442;2023-04-20T09:28:06;99266.66;;;15.95;100.00
44934;BME280;30667;43.614;1.442;2023-04-20T09:30:44;99269.78;;;16.06;100.00
44934;BME280;30667;43.614;1.442;2023-04-20T09:33:10;99264.19;;;16.24;100.00
44934;BME280;30667;43.614;1.442;2023-04-20T09:35:40;99267.31;;;16.34;100.00
44934;BME280;30667;43.614;1.442;2023-04-20T09:38:07;99271.13;;;16.21;100.00
44934;BME280;30667;43.614;1.442;2023-04-20T09:40:33;99266.13;;;16.23;100.00
44934;BME280;30667;43.614;1.442;2023-04-20T09:43:07;99262.13;;;16.21;100.00
44934;BME280;30667;43.614;1.442;2023-04-20T09:45:34;99259.25;;;16.38;100.00
44934;BME280;30667;43.614;1.442;2023-04-20T09:48:04;99264.31;;;16.27;100.00
44934;BME280;30667;43.614;1.442;2023-04-20T09:50:31;99258.69;;;16.32;100.00
44934;BME280;30667;43.614;1.442;2023-04-20T09:53:00;99257.72;;;16.28;100.00
44934;BME280;30667;43.614;1.442;2023-04-20T09:55:26;99253.41;;;16.27;100.00
44934;BME280;30667;43.614;1.442;2023-04-20T09:57:52;99248.22;;;16.34;100.00
44934;BME280;30667;43.614;1.442;2023-04-20T10:00:18;99248.16;;;16.56;100.00
44934;BME280;30667;43.614;1.442;2023-04-20T10:02:46;99243.78;;;16.76;98.83
44934;BME280;30667;43.614;1.442;2023-04-20T10:05:12;99244.59;;;16.76;96.27
44934;BME280;30667;43.614;1.442;2023-04-20T10:07:38;99238.91;;;16.81;92.53
44934;BME280;30667;43.614;1.442;2023-04-20T10:10:14;99235.50;;;16.72;97.58
44934;BME280;30667;43.614;1.442;2023-04-20T10:15:17;99235.13;;;17.32;84.86
44934;BME280;30667;43.614;1.442;2023-04-20T10:17:43;99227.56;;;16.92;97.41
44934;BME280;30667;43.614;1.442;2023-04-20T10:20:26;99221.13;;;16.75;99.53
44934;BME280;30667;43.614;1.442;2023-04-20T10:22:53;99219.59;;;16.86;94.93
44934;BME280;30667;43.614;1.442;2023-04-20T10:25:21;99217.69;;;17.12;88.75
44934;BME280;30667;43.614;1.442;2023-04-20T10:27:57;99216.09;;;17.48;81.27
44934;BME280;30667;43.614;1.442;2023-04-20T10:30:24;99212.22;;;17.24;84.10
44934;BME280;30667;43.614;1.442;2023-04-20T10:33:07;99211.75;;;16.97;89.43
44934;BME280;30667;43.614;1.442;2023-04-20T10:36:06;99200.94;;;16.88;92.27
44934;BME280;30667;43.614;1.442;2023-04-20T10:38:33;99205.50;;;17.09;89.12
44934;BME280;30667;43.614;1.442;2023-04-20T10:41:09;99202.31;;;17.44;86.26
44934;BME280;30667;43.614;1.442;2023-04-20T10:43:35;99206.28;;;17.10;91.38
44934;BME280;30667;43.614;1.442;2023-04-20T10:46:12;99197.72;;;17.48;81.98
44934;BME280;30667;43.614;1.442;2023-04-20T10:48:37;99194.22;;;17.48;77.28
44934;BME280;30667;43.614;1.442;2023-04-20T10:51:09;99196.84;;;17.44;80.80
44934;BME280;30667;43.614;1.442;2023-04-20T10:53:34;99195.22;;;17.55;76.55
44934;BME280;30667;43.614;1.442;2023-04-20T10:56:00;99194.22;;;18.01;67.33
44934;BME280;30667;43.614;1.442;2023-04-20T10:58:26;99186.34;;;17.99;62.87
44934;BME280;30667;43.614;1.442;2023-04-20T11:01:03;99185.31;;;18.04;57.48
44934;BME280;30667;43.614;1.442;2023-04-20T11:03:30;99179.66;;;17.84;60.19
44934;BME280;30667;43.614;1.442;2023-04-20T11:05:56;99170.63;;;17.84;63.74
44934;BME280;30667;43.614;1.442;2023-04-20T11:08:43;99167.16;;;18.11;54.79
44934;BME280;30667;43.614;1.442;2023-04-20T11:11:25;99172.31;;;18.29;53.69
44934;BME280;30667;43.614;1.442;2023-04-20T11:14:07;99171.63;;;18.04;56.61
44934;BME280;30667;43.614;1.442;2023-04-20T11:16:34;99167.19;;;17.87;61.84
44934;BME280;30667;43.614;1.442;2023-04-20T11:19:00;99175.72;;;18.10;58.46
44934;BME280;30667;43.614;1.442;2023-04-20T11:21:35;99166.09;;;17.88;58.56
44934;BME280;30667;43.614;1.442;2023-04-20T11:24:02;99153.69;;;17.78;62.27
44934;BME280;30667;43.614;1.442;2023-04-20T11:26:35;99159.47;;;18.17;54.62
44934;BME280;30667;43.614;1.442;2023-04-20T11:29:01;99165.38;;;18.03;57.46
44934;BME280;30667;43.614;1.442;2023-04-20T11:31:27;99163.03;;;18.18;53.10
44934;BME280;30667;43.614;1.442;2023-04-20T11:33:53;99159.69;;;17.84;50.13
44934;BME280;30667;43.614;1.442;2023-04-20T11:36:22;99155.56;;;17.61;58.72
44934;BME280;30667;43.614;1.442;2023-04-20T11:38:49;99143.69;;;17.70;56.59
44934;BME280;30667;43.614;1.442;2023-04-20T11:41:15;99143.81;;;18.02;55.30
44934;BME280;30667;43.614;1.442;2023-04-20T11:43:40;99137.22;;;18.19;53.99
44934;BME280;30667;43.614;1.442;2023-04-20T11:46:18;99134.75;;;18.13;54.56
44934;BME280;30667;43.614;1.442;2023-04-20T11:48:47;99136.38;;;18.30;52.50
44934;BME280;30667;43.614;1.442;2023-04-20T11:51:13;99132.47;;;18.31;53.18
44934;BME280;30667;43.614;1.442;2023-04-20T11:53:39;99127.47;;;18.05;56.57
44934;BME280;30667;43.614;1.442;2023-04-20T11:56:05;99124.41;;;17.66;59.33
44934;BME280;30667;43.614;1.442;2023-04-20T11:58:31;99123.22;;;17.92;56.10
44934;BME280;30667;43.614;1.442;2023-04-20T12:00:56;99120.88;;;18.06;58.89
44934;BME280;30667;43.614;1.442;2023-04-20T12:03:22;99127.34;;;18.30;57.39
44934;BME280;30667;43.614;1.442;2023-04-20T12:05:48;99112.41;;;18.11;62.98
44934;BME280;30667;43.614;1.442;2023-04-20T12:08:13;99115.53;;;18.42;58.54
44934;BME280;30667;43.614;1.442;2023-04-20T12:10:41;99116.53;;;18.65;55.61
44934;BME280;30667;43.614;1.442;2023-04-20T12:13:06;99112.78;;;19.05;52.98
44934;BME280;30667;43.614;1.442;2023-04-20T12:15:32;99117.41;;;18.85;55.74
44934;BME280;30667;43.614;1.442;2023-04-20T12:17:57;99116.59;;;19.01;56.49
44934;BME280;30667;43.614;1.442;2023-04-20T12:20:22;99110.47;;;19.08;55.15
44934;BME280;30667;43.614;1.442;2023-04-20T12:22:48;99122.22;;;18.44;60.23
44934;BME280;30667;43.614;1.442;2023-04-20T12:25:13;99119.72;;;18.07;63.04
44934;BME280;30667;43.614;1.442;2023-04-20T12:27:39;99116.38;;;17.86;69.62
44934;BME280;30667;43.614;1.442;2023-04-20T12:30:05;99111.16;;;17.81;66.18
44934;BME280;30667;43.614;1.442;2023-04-20T12:32:31;99105.91;;;17.88;66.38
44934;BME280;30667;43.614;1.442;2023-04-20T12:34:57;99113.81;;;18.05;63.28
44934;BME280;30667;43.614;1.442;2023-04-20T12:37:23;99119.56;;;17.88;64.61
44934;BME280;30667;43.614;1.442;2023-04-20T12:39:49;99113.00;;;18.05;63.69
44934;BME280;30667;43.614;1.442;2023-04-20T12:42:14;99107.31;;;18.26;61.54
44934;BME280;30667;43.614;1.442;2023-04-20T12:44:40;99106.25;;;18.30;61.24
44934;BME280;30667;43.614;1.442;2023-04-20T12:47:05;99114.13;;;18.48;59.83
44934;BME280;30667;43.614;1.442;2023-04-20T12:49:31;99120.50;;;18.84;57.22
44934;BME280;30667;43.614;1.442;2023-04-20T12:51:56;99122.50;;;18.71;56.93